sensor_id;sensor_type;location;lat;lon;timestamp;P1;durP1;ratioP1;P2;durP2;ratioP2
10063;SDS011;5071;52.360;13.134;2023-04-06T00:02:37;3.00;;;2.03;;
10063;SDS011;5071;52.360;13.134;2023-04-06T00:07:40;3.47;;;2.00;;
10063;SDS011;5071;52.360;13.134;2023-04-06T00:12:43;2.93;;;1.80;;
10063;SDS011;5071;52.360;13.134;2023-04-06T00:17:46;2.23;;;2.00;;
10063;SDS011;5071;52.360;13.134;2023-04-06T00:22:48;3.80;;;2.00;;
10063;SDS011;5071;52.360;13.134;2023-04-06T00:27:51;2.37;;;1.97;;
10063;SDS011;5071;52.360;13.134;2023-04-06T00:32:54;4.20;;;2.63;;
10063;SDS011;5071;52.360;13.134;2023-04-06T00:37:56;3.97;;;2.10;;
10063;SDS011;5071;52.360;13.134;2023-04-06T00:42:58;4.53;;;2.40;;
10063;SDS011;5071;52.360;13.134;2023-04-06T00:48:02;3.97;;;2.10;;
10063;SDS011;5071;52.360;13.134;2023-04-06T00:53:04;4.80;;;2.33;;
10063;SDS011;5071;52.360;13.134;2023-04-06T00:58:07;4.23;;;2.37;;
10063;SDS011;5071;52.360;13.134;2023-04-06T01:03:11;3.53;;;2.57;;
10063;SDS011;5071;52.360;13.134;2023-04-06T01:08:13;3.50;;;2.40;;
10063;SDS011;5071;52.360;13.134;2023-04-06T01:13:15;4.70;;;2.27;;
10063;SDS011;5071;52.360;13.134;2023-04-06T01:18:18;10.63;;;2.87;;
10063;SDS011;5071;52.360;13.134;2023-04-06T01:23:28;4.60;;;2.90;;
10063;SDS011;5071;52.360;13.134;2023-04-06T01:28:31;6.47;;;2.77;;
10063;SDS011;5071;52.360;13.134;2023-04-06T01:33:33;2.57;;;2.20;;
10063;SDS011;5071;52.360;13.134;2023-04-06T01:38:37;4.80;;;2.40;;
10063;SDS011;5071;52.360;13.134;2023-04-06T01:43:39;9.73;;;3.40;;
10063;SDS011;5071;52.360;13.134;2023-04-06T01:48:41;4.03;;;2.70;;
10063;SDS011;5071;52.360;13.134;2023-04-06T01:53:45;3.67;;;2.30;;
10063;SDS011;5071;52.360;13.134;2023-04-06T01:58:47;3.60;;;2.97;;
10063;SDS011;5071;52.360;13.134;2023-04-06T02:03:49;2.93;;;2.23;;
10063;SDS011;5071;52.360;13.134;2023-04-06T02:08:53;3.33;;;2.57;;
10063;SDS011;5071;52.360;13.134;2023-04-06T02:13:55;2.97;;;2.53;;
10063;SDS011;5071;52.360;13.134;2023-04-06T02:18:57;4.17;;;3.00;;
10063;SDS011;5071;52.360;13.134;2023-04-06T02:24:01;5.33;;;2.40;;
10063;SDS011;5071;52.360;13.134;2023-04-06T02:29:03;3.17;;;2.57;;
10063;SDS011;5071;52.360;13.134;2023-04-06T02:34:05;3.43;;;2.43;;
10063;SDS011;5071;52.360;13.134;2023-04-06T02:39:09;4.07;;;2.67;;
10063;SDS011;5071;52.360;13.134;2023-04-06T02:44:11;4.13;;;2.63;;
10063;SDS011;5071;52.360;13.134;2023-04-06T02:49:13;5.23;;;2.87;;
10063;SDS011;5071;52.360;13.134;2023-04-06T02:54:17;4.10;;;2.70;;
10063;SDS011;5071;52.360;13.134;2023-04-06T02:59:19;2.97;;;2.50;;
10063;SDS011;5071;52.360;13.134;2023-04-06T03:04:22;7.57;;;3.03;;
10063;SDS011;5071;52.360;13.134;2023-04-06T03:09:25;6.23;;;2.97;;
10063;SDS011;5071;52.360;13.134;2023-04-06T03:14:28;3.00;;;2.70;;
10063;SDS011;5071;52.360;13.134;2023-04-06T03:19:30;3.33;;;2.43;;
10063;SDS011;5071;52.360;13.134;2023-04-06T03:24:33;2.83;;;2.33;;
10063;SDS011;5071;52.360;13.134;2023-04-06T03:29:35;4.10;;;2.63;;
10063;SDS011;5071;52.360;13.134;2023-04-06T03:34:37;5.60;;;2.80;;
10063;SDS011;5071;52.360;13.134;2023-04-06T03:39:46;3.23;;;2.60;;
10063;SDS011;5071;52.360;13.134;2023-04-06T03:44:48;3.67;;;2.80;;
10063;SDS011;5071;52.360;13.134;2023-04-06T03:49:50;4.77;;;3.00;;
10063;SDS011;5071;52.360;13.134;2023-04-06T03:54:54;5.00;;;3.07;;
10063;SDS011;5071;52.360;13.134;2023-04-06T03:59:56;6.23;;;3.70;;
10063;SDS011;5071;52.360;13.134;2023-04-06T04:04:58;4.93;;;3.30;;
10063;SDS011;5071;52.360;13.134;2023-04-06T04:10:01;4.43;;;3.77;;
10063;SDS011;5071;52.360;13.134;2023-04-06T04:15:04;4.40;;;3.43;;
10063;SDS011;5071;52.360;13.134;2023-04-06T04:20:07;3.53;;;2.73;;
10063;SDS011;5071;52.360;13.134;2023-04-06T04:25:11;8.37;;;3.93;;
10063;SDS011;5071;52.360;13.134;2023-04-06T04:30:13;8.00;;;3.93;;
10063;SDS011;5071;52.360;13.134;2023-04-06T04:35:15;8.77;;;4.57;;
10063;SDS011;5071;52.360;13.134;2023-04-06T04:40:19;5.33;;;4.00;;
10063;SDS011;5071;52.360;13.134;2023-04-06T04:45:22;6.07;;;4.20;;
10063;SDS011;5071;52.360;13.134;2023-04-06T04:50:24;5.53;;;3.63;;
10063;SDS011;5071;52.360;13.134;2023-04-06T04:55:28;5.47;;;3.97;;
10063;SDS011;5071;52.360;13.134;2023-04-06T05:00:30;5.23;;;3.77;;
10063;SDS011;5071;52.360;13.134;2023-04-06T05:05:33;5.87;;;4.13;;
10063;SDS011;5071;52.360;13.134;2023-04-06T05:10:36;9.80;;;5.00;;
10063;SDS011;5071;52.360;13.134;2023-04-06T05:15:39;10.73;;;5.23;;
10063;SDS011;5071;52.360;13.134;2023-04-06T05:20:42;6.17;;;3.67;;
10063;SDS011;5071;52.360;13.134;2023-04-06T05:25:45;8.53;;;4.00;;
10063;SDS011;5071;52.360;13.134;2023-04-06T05:30:48;7.77;;;3.97;;
10063;SDS011;5071;52.360;13.134;2023-04-06T05:35:50;6.27;;;4.80;;
10063;SDS011;5071;52.360;13.134;2023-04-06T05:40:54;6.43;;;4.77;;
10063;SDS011;5071;52.360;13.134;2023-04-06T05:45:56;9.57;;;4.57;;
10063;SDS011;5071;52.360;13.134;2023-04-06T05:50:59;5.93;;;2.87;;
10063;SDS011;5071;52.360;13.134;2023-04-06T05:56:03;3.77;;;2.30;;
10063;SDS011;5071;52.360;13.134;2023-04-06T06:01:05;4.57;;;2.67;;
10063;SDS011;5071;52.360;13.134;2023-04-06T06:06:07;7.77;;;2.43;;
10063;SDS011;5071;52.360;13.134;2023-04-06T06:11:11;3.60;;;2.60;;
10063;SDS011;5071;52.360;13.134;2023-04-06T06:16:13;4.80;;;3.10;;
10063;SDS011;5071;52.360;13.134;2023-04-06T06:21:16;4.40;;;2.57;;
10063;SDS011;5071;52.360;13.134;2023-04-06T06:26:19;4.40;;;2.80;;
10063;SDS011;5071;52.360;13.134;2023-04-06T06:31:22;5.43;;;3.03;;
10063;SDS011;5071;52.360;13.134;2023-04-06T06:36:24;7.37;;;3.00;;
10063;SDS011;5071;52.360;13.134;2023-04-06T06:41:28;7.50;;;3.50;;
10063;SDS011;5071;52.360;13.134;2023-04-06T06:46:30;4.13;;;3.20;;
10063;SDS011;5071;52.360;13.134;2023-04-06T06:51:34;5.50;;;3.67;;
10063;SDS011;5071;52.360;13.134;2023-04-06T06:56:38;6.43;;;3.20;;
10063;SDS011;5071;52.360;13.134;2023-04-06T07:01:40;5.73;;;4.43;;
10063;SDS011;5071;52.360;13.134;2023-04-06T07:06:42;7.50;;;4.33;;
10063;SDS011;5071;52.360;13.134;2023-04-06T07:11:46;4.83;;;4.13;;
10063;SDS011;5071;52.360;13.134;2023-04-06T07:16:48;6.67;;;4.13;;
10063;SDS011;5071;52.360;13.134;2023-04-06T07:21:50;5.70;;;4.47;;
10063;SDS011;5071;52.360;13.134;2023-04-06T07:26:53;6.40;;;4.03;;
10063;SDS011;5071;52.360;13.134;2023-04-06T07:31:56;6.33;;;4.53;;
10063;SDS011;5071;52.360;13.134;2023-04-06T07:36:57;5.97;;;4.57;;
10063;SDS011;5071;52.360;13.134;2023-04-06T07:42:04;5.40;;;4.20;;
10063;SDS011;5071;52.360;13.134;2023-04-06T07:47:06;7.63;;;4.40;;
10063;SDS011;5071;52.360;13.134;2023-04-06T07:52:08;5.73;;;4.37;;
10063;SDS011;5071;52.360;13.134;2023-04-06T07:57:11;6.63;;;4.57;;
10063;SDS011;5071;52.360;13.134;2023-04-06T08:02:14;4.37;;;3.97;;
10063;SDS011;5071;52.360;13.134;2023-04-06T08:07:16;9.10;;;3.93;;
10063;SDS011;5071;52.360;13.134;2023-04-06T08:12:20;4.30;;;3.63;;
10063;SDS011;5071;52.360;13.134;2023-04-06T08:17:22;4.37;;;3.47;;
10063;SDS011;5071;52.360;13.134;2023-04-06T08:22:24;4.00;;;3.43;;
10063;SDS011;5071;52.360;13.134;2023-04-06T08:27:27;7.73;;;2.57;;
10063;SDS011;5071;52.360;13.134;2023-04-06T08:32:29;3.23;;;2.00;;
10063;SDS011;5071;52.360;13.134;2023-04-06T08:37:31;2.37;;;2.00;;
10063;SDS011;5071;52.360;13.134;2023-04-06T08:42:39;4.93;;;2.20;;
10063;SDS011;5071;52.360;13.134;2023-04-06T08:47:42;2.67;;;1.90;;
10063;SDS011;5071;52.360;13.134;2023-04-06T08:52:44;3.90;;;2.20;;
10063;SDS011;5071;52.360;13.134;2023-04-06T08:57:50;2.13;;;1.27;;
10063;SDS011;5071;52.360;13.134;2023-04-06T09:02:53;2.17;;;1.33;;
10063;SDS011;5071;52.360;13.134;2023-04-06T09:07:58;2.50;;;1.23;;
10063;SDS011;5071;52.360;13.134;2023-04-06T09:13:04;1.87;;;1.40;;
10063;SDS011;5071;52.360;13.134;2023-04-06T09:18:07;3.87;;;1.40;;
10063;SDS011;5071;52.360;13.134;2023-04-06T09:23:17;3.10;;;1.67;;
10063;SDS011;5071;52.360;13.134;2023-04-06T09:28:21;1.50;;;1.40;;
10063;SDS011;5071;52.360;13.134;2023-04-06T09:33:23;2.10;;;1.57;;
10063;SDS011;5071;52.360;13.134;2023-04-06T09:38:25;2.93;;;2.03;;
10063;SDS011;5071;52.360;13.134;2023-04-06T09:43:29;2.60;;;1.90;;
10063;SDS011;5071;52.360;13.134;2023-04-06T09:48:31;2.40;;;1.50;;
10063;SDS011;5071;52.360;13.134;2023-04-06T09:53:37;1.83;;;1.53;;
10063;SDS011;5071;52.360;13.134;2023-04-06T09:58:45;1.97;;;1.70;;
10063;SDS011;5071;52.360;13.134;2023-04-06T10:03:50;2.83;;;1.60;;
10063;SDS011;5071;52.360;13.134;2023-04-06T10:08:58;1.63;;;1.50;;
10063;SDS011;5071;52.360;13.134;2023-04-06T10:14:04;2.07;;;1.60;;
10063;SDS011;5071;52.360;13.134;2023-04-06T10:19:10;2.03;;;1.43;;
10063;SDS011;5071;52.360;13.134;2023-04-06T10:24:17;1.93;;;1.70;;
10063;SDS011;5071;52.360;13.134;2023-04-06T10:29:20;1.70;;;1.60;;
10063;SDS011;5071;52.360;13.134;2023-04-06T10:34:22;2.23;;;1.50;;
10063;SDS011;5071;52.360;13.134;2023-04-06T10:39:36;1.87;;;1.67;;
10063;SDS011;5071;52.360;13.134;2023-04-06T10:44:49;2.30;;;1.47;;
10063;SDS011;5071;52.360;13.134;2023-04-06T10:49:51;1.80;;;1.43;;
10063;SDS011;5071;52.360;13.134;2023-04-06T10:54:59;2.23;;;1.70;;
10063;SDS011;5071;52.360;13.134;2023-04-06T11:00:05;1.70;;;1.47;;
10063;SDS011;5071;52.360;13.134;2023-04-06T11:05:11;2.03;;;1.50;;
10063;SDS011;5071;52.360;13.134;2023-04-06T11:10:20;3.10;;;1.70;;
10063;SDS011;5071;52.360;13.134;2023-04-06T11:15:24;2.40;;;1.90;;
10063;SDS011;5071;52.360;13.134;2023-04-06T11:20:26;2.93;;;1.90;;
10063;SDS011;5071;52.360;13.134;2023-04-06T11:25:29;3.50;;;2.10;;
10063;SDS011;5071;52.360;13.134;2023-04-06T11:30:32;4.30;;;2.00;;
10063;SDS011;5071;52.360;13.134;2023-04-06T11:35:35;2.30;;;1.67;;
10063;SDS011;5071;52.360;13.134;2023-04-06T11:40:39;1.90;;;1.70;;
10063;SDS011;5071;52.360;13.134;2023-04-06T11:45:42;2.27;;;1.50;;
10063;SDS011;5071;52.360;13.134;2023-04-06T11:50:48;2.13;;;1.90;;
10063;SDS011;5071;52.360;13.134;2023-04-06T11:55:50;2.57;;;1.77;;
10063;SDS011;5071;52.360;13.134;2023-04-06T12:00:53;2.20;;;2.00;;
10063;SDS011;5071;52.360;13.134;2023-04-06T12:06:05;2.27;;;2.00;;
10063;SDS011;5071;52.360;13.134;2023-04-06T12:11:07;2.30;;;1.90;;
10063;SDS011;5071;52.360;13.134;2023-04-06T12:16:11;2.77;;;1.90;;
10063;SDS011;5071;52.360;13.134;2023-04-06T12:21:13;1.90;;;1.70;;
10063;SDS011;5071;52.360;13.134;2023-04-06T12:26:15;2.50;;;1.90;;
10063;SDS011;5071;52.360;13.134;2023-04-06T12:31:18;2.53;;;1.87;;
10063;SDS011;5071;52.360;13.134;2023-04-06T12:36:21;2.30;;;1.63;;
10063;SDS011;5071;52.360;13.134;2023-04-06T12:41:24;2.03;;;1.83;;
10063;SDS011;5071;52.360;13.134;2023-04-06T12:46:27;2.17;;;1.87;;
10063;SDS011;5071;52.360;13.134;2023-04-06T12:51:30;3.47;;;1.67;;
10063;SDS011;5071;52.360;13.134;2023-04-06T12:56:32;1.93;;;1.70;;
10063;SDS011;5071;52.360;13.134;2023-04-06T13:01:36;4.80;;;2.07;;
10063;SDS011;5071;52.360;13.134;2023-04-06T13:06:39;2.87;;;1.97;;
10063;SDS011;5071;52.360;13.134;2023-04-06T13:11:41;3.57;;;2.10;;
10063;SDS011;5071;52.360;13.134;2023-04-06T13:16:45;2.83;;;2.03;;
10063;SDS011;5071;52.360;13.134;2023-04-06T13:21:47;2.67;;;1.97;;
10063;SDS011;5071;52.360;13.134;2023-04-06T13:26:49;2.77;;;1.60;;
10063;SDS011;5071;52.360;13.134;2023-04-06T13:31:53;3.20;;;2.20;;
10063;SDS011;5071;52.360;13.134;2023-04-06T13:36:55;2.77;;;1.63;;
10063;SDS011;5071;52.360;13.134;2023-04-06T13:41:57;2.23;;;1.80;;
10063;SDS011;5071;52.360;13.134;2023-04-06T13:47:00;2.33;;;1.90;;
10063;SDS011;5071;52.360;13.134;2023-04-06T13:52:02;2.93;;;2.30;;
10063;SDS011;5071;52.360;13.134;2023-04-06T13:57:04;3.03;;;2.50;;
10063;SDS011;5071;52.360;13.134;2023-04-06T14:02:10;2.80;;;2.37;;
10063;SDS011;5071;52.360;13.134;2023-04-06T14:07:12;2.50;;;1.97;;
10063;SDS011;5071;52.360;13.134;2023-04-06T14:12:14;2.20;;;1.90;;
10063;SDS011;5071;52.360;13.134;2023-04-06T14:17:17;2.53;;;2.10;;
10063;SDS011;5071;52.360;13.134;2023-04-06T14:22:20;2.77;;;2.27;;
10063;SDS011;5071;52.360;13.134;2023-04-06T14:27:22;2.70;;;2.13;;
10063;SDS011;5071;52.360;13.134;2023-04-06T14:32:25;2.43;;;2.23;;
10063;SDS011;5071;52.360;13.134;2023-04-06T14:37:27;2.97;;;1.83;;
10063;SDS011;5071;52.360;13.134;2023-04-06T14:42:29;5.13;;;2.23;;
10063;SDS011;5071;52.360;13.134;2023-04-06T14:47:32;2.23;;;1.87;;
10063;SDS011;5071;52.360;13.134;2023-04-06T14:52:35;3.07;;;2.13;;
10063;SDS011;5071;52.360;13.134;2023-04-06T14:57:37;3.27;;;2.43;;
10063;SDS011;5071;52.360;13.134;2023-04-06T15:02:41;3.83;;;2.17;;
10063;SDS011;5071;52.360;13.134;2023-04-06T15:07:43;2.37;;;2.00;;
10063;SDS011;5071;52.360;13.134;2023-04-06T15:12:45;5.33;;;2.90;;
10063;SDS011;5071;52.360;13.134;2023-04-06T15:17:48;4.73;;;3.07;;
10063;SDS011;5071;52.360;13.134;2023-04-06T15:22:51;3.83;;;2.17;;
10063;SDS011;5071;52.360;13.134;2023-04-06T15:27:53;3.17;;;2.00;;
10063;SDS011;5071;52.360;13.134;2023-04-06T15:32:57;2.10;;;1.80;;
10063;SDS011;5071;52.360;13.134;2023-04-06T15:38:00;1.83;;;1.70;;
10063;SDS011;5071;52.360;13.134;2023-04-06T15:43:03;2.10;;;1.60;;
10063;SDS011;5071;52.360;13.134;2023-04-06T15:48:06;2.90;;;1.93;;
10063;SDS011;5071;52.360;13.134;2023-04-06T15:53:09;2.57;;;1.77;;
10063;SDS011;5071;52.360;13.134;2023-04-06T15:58:11;3.03;;;1.50;;
10063;SDS011;5071;52.360;13.134;2023-04-06T16:03:14;2.23;;;1.67;;
10063;SDS011;5071;52.360;13.134;2023-04-06T16:08:17;2.13;;;1.93;;
10063;SDS011;5071;52.360;13.134;2023-04-06T16:13:19;3.83;;;1.70;;
10063;SDS011;5071;52.360;13.134;2023-04-06T16:18:23;1.60;;;1.50;;
10063;SDS011;5071;52.360;13.134;2023-04-06T16:23:25;2.00;;;1.60;;
10063;SDS011;5071;52.360;13.134;2023-04-06T16:28:34;3.70;;;1.70;;
10063;SDS011;5071;52.360;13.134;2023-04-06T16:33:38;2.47;;;1.93;;
10063;SDS011;5071;52.360;13.134;2023-04-06T16:38:40;5.73;;;1.93;;
10063;SDS011;5071;52.360;13.134;2023-04-06T16:43:42;2.83;;;1.53;;
10063;SDS011;5071;52.360;13.134;2023-04-06T16:48:45;1.80;;;1.70;;
10063;SDS011;5071;52.360;13.134;2023-04-06T16:53:47;1.80;;;1.50;;
10063;SDS011;5071;52.360;13.134;2023-04-06T16:58:49;2.27;;;1.80;;
10063;SDS011;5071;52.360;13.134;2023-04-06T17:03:52;1.30;;;1.20;;
10063;SDS011;5071;52.360;13.134;2023-04-06T17:08:55;2.23;;;1.30;;
10063;SDS011;5071;52.360;13.134;2023-04-06T17:13:57;1.83;;;1.50;;
10063;SDS011;5071;52.360;13.134;2023-04-06T17:19:01;1.67;;;1.50;;
10063;SDS011;5071;52.360;13.134;2023-04-06T17:24:03;1.90;;;1.17;;
10063;SDS011;5071;52.360;13.134;2023-04-06T17:29:05;1.67;;;1.23;;
10063;SDS011;5071;52.360;13.134;2023-04-06T17:34:09;1.33;;;1.10;;
10063;SDS011;5071;52.360;13.134;2023-04-06T17:39:11;2.63;;;1.43;;
10063;SDS011;5071;52.360;13.134;2023-04-06T17:44:13;1.80;;;1.50;;
10063;SDS011;5071;52.360;13.134;2023-04-06T17:49:16;1.73;;;1.50;;
10063;SDS011;5071;52.360;13.134;2023-04-06T17:54:18;2.03;;;1.60;;
10063;SDS011;5071;52.360;13.134;2023-04-06T17:59:20;3.70;;;1.40;;
10063;SDS011;5071;52.360;13.134;2023-04-06T18:04:23;5.33;;;2.00;;
10063;SDS011;5071;52.360;13.134;2023-04-06T18:09:25;1.53;;;1.40;;
10063;SDS011;5071;52.360;13.134;2023-04-06T18:14:33;2.73;;;1.27;;
10063;SDS011;5071;52.360;13.134;2023-04-06T18:19:36;1.40;;;1.30;;
10063;SDS011;5071;52.360;13.134;2023-04-06T18:24:38;2.23;;;1.13;;
10063;SDS011;5071;52.360;13.134;2023-04-06T18:29:43;1.87;;;1.27;;
10063;SDS011;5071;52.360;13.134;2023-04-06T18:34:47;1.33;;;1.20;;
10063;SDS011;5071;52.360;13.134;2023-04-06T18:39:49;1.40;;;1.20;;
10063;SDS011;5071;52.360;13.134;2023-04-06T18:44:51;3.10;;;1.30;;
10063;SDS011;5071;52.360;13.134;2023-04-06T18:49:55;1.97;;;1.20;;
10063;SDS011;5071;52.360;13.134;2023-04-06T18:54:57;4.07;;;1.40;;
10063;SDS011;5071;52.360;13.134;2023-04-06T19:00:00;1.47;;;1.37;;
10063;SDS011;5071;52.360;13.134;2023-04-06T19:05:13;2.53;;;1.37;;
10063;SDS011;5071;52.360;13.134;2023-04-06T19:10:15;1.47;;;1.07;;
10063;SDS011;5071;52.360;13.134;2023-04-06T19:15:17;2.80;;;1.40;;
10063;SDS011;5071;52.360;13.134;2023-04-06T19:20:21;1.67;;;1.50;;
10063;SDS011;5071;52.360;13.134;2023-04-06T19:25:23;1.60;;;1.10;;
10063;SDS011;5071;52.360;13.134;2023-04-06T19:30:25;4.27;;;1.63;;
10063;SDS011;5071;52.360;13.134;2023-04-06T19:35:28;2.17;;;1.27;;
10063;SDS011;5071;52.360;13.134;2023-04-06T19:40:30;1.90;;;1.37;;
10063;SDS011;5071;52.360;13.134;2023-04-06T19:45:32;4.20;;;1.73;;
10063;SDS011;5071;52.360;13.134;2023-04-06T19:50:35;4.97;;;1.93;;
10063;SDS011;5071;52.360;13.134;2023-04-06T19:55:38;6.03;;;2.50;;
10063;SDS011;5071;52.360;13.134;2023-04-06T20:00:40;4.50;;;2.60;;
10063;SDS011;5071;52.360;13.134;2023-04-06T20:05:43;4.40;;;2.97;;
10063;SDS011;5071;52.360;13.134;2023-04-06T20:10:45;3.90;;;2.43;;
10063;SDS011;5071;52.360;13.134;2023-04-06T20:15:48;6.37;;;2.60;;
10063;SDS011;5071;52.360;13.134;2023-04-06T20:20:51;3.37;;;2.43;;
10063;SDS011;5071;52.360;13.134;2023-04-06T20:25:53;3.40;;;2.57;;
10063;SDS011;5071;52.360;13.134;2023-04-06T20:30:55;5.43;;;2.57;;
10063;SDS011;5071;52.360;13.134;2023-04-06T20:35:59;4.60;;;2.47;;
10063;SDS011;5071;52.360;13.134;2023-04-06T20:41:02;4.53;;;2.70;;
10063;SDS011;5071;52.360;13.134;2023-04-06T20:46:04;6.70;;;2.67;;
10063;SDS011;5071;52.360;13.134;2023-04-06T20:51:08;4.17;;;2.20;;
10063;SDS011;5071;52.360;13.134;2023-04-06T20:56:18;4.37;;;2.57;;
10063;SDS011;5071;52.360;13.134;2023-04-06T21:01:20;5.00;;;2.27;;
10063;SDS011;5071;52.360;13.134;2023-04-06T21:06:25;3.10;;;2.60;;
10063;SDS011;5071;52.360;13.134;2023-04-06T21:11:28;5.30;;;2.43;;
10063;SDS011;5071;52.360;13.134;2023-04-06T21:16:30;4.23;;;2.63;;
10063;SDS011;5071;52.360;13.134;2023-04-06T21:21:33;6.03;;;2.63;;
10063;SDS011;5071;52.360;13.134;2023-04-06T21:26:35;3.00;;;2.50;;
10063;SDS011;5071;52.360;13.134;2023-04-06T21:31:38;4.40;;;2.70;;
10063;SDS011;5071;52.360;13.134;2023-04-06T21:36:42;4.30;;;2.50;;
10063;SDS011;5071;52.360;13.134;2023-04-06T21:41:44;3.40;;;2.40;;
10063;SDS011;5071;52.360;13.134;2023-04-06T21:46:46;3.53;;;2.30;;
10063;SDS011;5071;52.360;13.134;2023-04-06T21:51:49;4.00;;;2.40;;
10063;SDS011;5071;52.360;13.134;2023-04-06T21:56:51;4.97;;;2.60;;
10063;SDS011;5071;52.360;13.134;2023-04-06T22:01:52;4.17;;;2.67;;
10063;SDS011;5071;52.360;13.134;2023-04-06T22:06:58;4.63;;;3.13;;
10063;SDS011;5071;52.360;13.134;2023-04-06T22:12:00;4.53;;;2.50;;
10063;SDS011;5071;52.360;13.134;2023-04-06T22:17:02;6.20;;;3.47;;
10063;SDS011;5071;52.360;13.134;2023-04-06T22:22:05;5.13;;;2.63;;
10063;SDS011;5071;52.360;13.134;2023-04-06T22:27:08;5.90;;;2.60;;
10063;SDS011;5071;52.360;13.134;2023-04-06T22:32:10;5.00;;;2.97;;
10063;SDS011;5071;52.360;13.134;2023-04-06T22:37:14;3.20;;;2.60;;
10063;SDS011;5071;52.360;13.134;2023-04-06T22:42:15;5.87;;;2.63;;
10063;SDS011;5071;52.360;13.134;2023-04-06T22:47:17;4.80;;;3.10;;
10063;SDS011;5071;52.360;13.134;2023-04-06T22:52:21;6.10;;;3.57;;
10063;SDS011;5071;52.360;13.134;2023-04-06T22:57:22;6.20;;;3.10;;
10063;SDS011;5071;52.360;13.134;2023-04-06T23:02:24;4.60;;;3.20;;
10063;SDS011;5071;52.360;13.134;2023-04-06T23:07:28;4.33;;;3.40;;
10063;SDS011;5071;52.360;13.134;2023-04-06T23:12:29;5.23;;;3.40;;
10063;SDS011;5071;52.360;13.134;2023-04-06T23:17:32;7.37;;;3.90;;
10063;SDS011;5071;52.360;13.134;2023-04-06T23:22:35;5.87;;;3.53;;
10063;SDS011;5071;52.360;13.134;2023-04-06T23:27:37;4.83;;;3.30;;
10063;SDS011;5071;52.360;13.134;2023-04-06T23:32:39;4.97;;;3.10;;
10063;SDS011;5071;52.360;13.134;2023-04-06T23:37:42;4.70;;;2.90;;
10063;SDS011;5071;52.360;13.134;2023-04-06T23:42:44;4.20;;;3.07;;
10063;SDS011;5071;52.360;13.134;2023-04-06T23:47:46;4.67;;;3.27;;
10063;SDS011;5071;52.360;13.134;2023-04-06T23:52:50;4.70;;;3.20;;
10063;SDS011;5071;52.360;13.134;2023-04-06T23:57:52;7.50;;;3.63;;
